sensor_id;sensor_type;location;lat;lon;timestamp;P1;durP1;ratioP1;P2;durP2;ratioP2
28437;SDS011;15667;52.376;9.708;2023-02-03T00:01:34;79.85;;;27.27;;
28437;SDS011;15667;52.376;9.708;2023-02-03T00:04:00;84.70;;;28.90;;
28437;SDS011;15667;52.376;9.708;2023-02-03T00:06:25;87.03;;;29.10;;
28437;SDS011;15667;52.376;9.708;2023-02-03T00:08:52;88.60;;;30.40;;
28437;SDS011;15667;52.376;9.708;2023-02-03T00:11:20;84.18;;;27.95;;
28437;SDS011;15667;52.376;9.708;2023-02-03T00:13:46;96.85;;;31.55;;
28437;SDS011;15667;52.376;9.708;2023-02-03T00:16:12;95.13;;;33.88;;
28437;SDS011;15667;52.376;9.708;2023-02-03T00:18:37;87.43;;;31.25;;
28437;SDS011;15667;52.376;9.708;2023-02-03T00:21:03;99.20;;;33.92;;
28437;SDS011;15667;52.376;9.708;2023-02-03T00:23:29;104.57;;;35.55;;
28437;SDS011;15667;52.376;9.708;2023-02-03T00:25:56;102.57;;;33.92;;
28437;SDS011;15667;52.376;9.708;2023-02-03T00:28:23;103.13;;;35.95;;
28437;SDS011;15667;52.376;9.708;2023-02-03T00:30:52;81.32;;;27.83;;
28437;SDS011;15667;52.376;9.708;2023-02-03T00:33:18;102.30;;;34.80;;
28437;SDS011;15667;52.376;9.708;2023-02-03T00:35:43;109.82;;;36.67;;
28437;SDS011;15667;52.376;9.708;2023-02-03T00:38:09;86.32;;;29.85;;
28437;SDS011;15667;52.376;9.708;2023-02-03T00:40:35;91.25;;;33.15;;
28437;SDS011;15667;52.376;9.708;2023-02-03T00:43:00;89.50;;;32.92;;
28437;SDS011;15667;52.376;9.708;2023-02-03T00:45:26;94.57;;;33.92;;
28437;SDS011;15667;52.376;9.708;2023-02-03T00:47:51;94.28;;;36.20;;
28437;SDS011;15667;52.376;9.708;2023-02-03T00:50:17;84.13;;;32.88;;
28437;SDS011;15667;52.376;9.708;2023-02-03T00:52:42;94.03;;;32.70;;
28437;SDS011;15667;52.376;9.708;2023-02-03T00:55:08;86.28;;;32.50;;
28437;SDS011;15667;52.376;9.708;2023-02-03T00:57:34;94.25;;;31.40;;
28437;SDS011;15667;52.376;9.708;2023-02-03T00:59:59;83.97;;;32.75;;
28437;SDS011;15667;52.376;9.708;2023-02-03T01:02:25;84.03;;;32.00;;
28437;SDS011;15667;52.376;9.708;2023-02-03T01:04:50;84.63;;;32.58;;
28437;SDS011;15667;52.376;9.708;2023-02-03T01:07:16;85.03;;;32.72;;
28437;SDS011;15667;52.376;9.708;2023-02-03T01:09:42;82.53;;;31.75;;
28437;SDS011;15667;52.376;9.708;2023-02-03T01:12:08;81.53;;;32.03;;
28437;SDS011;15667;52.376;9.708;2023-02-03T01:14:33;80.80;;;31.92;;
28437;SDS011;15667;52.376;9.708;2023-02-03T01:16:59;83.40;;;29.40;;
28437;SDS011;15667;52.376;9.708;2023-02-03T01:19:25;73.82;;;30.35;;
28437;SDS011;15667;52.376;9.708;2023-02-03T01:21:51;84.50;;;30.25;;
28437;SDS011;15667;52.376;9.708;2023-02-03T01:24:17;78.95;;;29.42;;
28437;SDS011;15667;52.376;9.708;2023-02-03T01:26:42;69.65;;;28.10;;
28437;SDS011;15667;52.376;9.708;2023-02-03T01:29:08;66.32;;;27.02;;
28437;SDS011;15667;52.376;9.708;2023-02-03T01:31:35;77.82;;;28.42;;
28437;SDS011;15667;52.376;9.708;2023-02-03T01:34:06;70.68;;;28.75;;
28437;SDS011;15667;52.376;9.708;2023-02-03T01:36:35;68.10;;;27.42;;
28437;SDS011;15667;52.376;9.708;2023-02-03T01:39:01;66.57;;;26.48;;
28437;SDS011;15667;52.376;9.708;2023-02-03T01:41:29;60.05;;;25.77;;
28437;SDS011;15667;52.376;9.708;2023-02-03T01:44:00;67.57;;;27.13;;
28437;SDS011;15667;52.376;9.708;2023-02-03T01:46:34;62.53;;;27.42;;
28437;SDS011;15667;52.376;9.708;2023-02-03T01:49:21;69.32;;;27.85;;
28437;SDS011;15667;52.376;9.708;2023-02-03T01:51:51;64.90;;;26.10;;
28437;SDS011;15667;52.376;9.708;2023-02-03T01:54:19;64.97;;;27.08;;
28437;SDS011;15667;52.376;9.708;2023-02-03T01:56:50;73.07;;;27.45;;
28437;SDS011;15667;52.376;9.708;2023-02-03T01:59:20;54.33;;;25.63;;
28437;SDS011;15667;52.376;9.708;2023-02-03T02:01:47;61.55;;;24.83;;
28437;SDS011;15667;52.376;9.708;2023-02-03T02:04:13;59.85;;;24.95;;
28437;SDS011;15667;52.376;9.708;2023-02-03T02:06:40;56.30;;;24.58;;
28437;SDS011;15667;52.376;9.708;2023-02-03T02:09:06;58.88;;;24.38;;
28437;SDS011;15667;52.376;9.708;2023-02-03T02:11:32;56.55;;;23.55;;
28437;SDS011;15667;52.376;9.708;2023-02-03T02:13:59;54.13;;;24.35;;
28437;SDS011;15667;52.376;9.708;2023-02-03T02:19:33;47.00;;;19.52;;
28437;SDS011;15667;52.376;9.708;2023-02-03T02:22:39;50.97;;;21.05;;
28437;SDS011;15667;52.376;9.708;2023-02-03T02:28:14;43.50;;;20.00;;
28437;SDS011;15667;52.376;9.708;2023-02-03T02:34:21;40.30;;;19.58;;
28437;SDS011;15667;52.376;9.708;2023-02-03T02:39:52;50.53;;;18.85;;
28437;SDS011;15667;52.376;9.708;2023-02-03T02:42:30;36.25;;;18.08;;
28437;SDS011;15667;52.376;9.708;2023-02-03T02:45:09;40.15;;;19.02;;
28437;SDS011;15667;52.376;9.708;2023-02-03T02:47:40;41.22;;;18.15;;
28437;SDS011;15667;52.376;9.708;2023-02-03T02:50:13;43.83;;;18.20;;
28437;SDS011;15667;52.376;9.708;2023-02-03T02:52:48;40.17;;;16.50;;
28437;SDS011;15667;52.376;9.708;2023-02-03T02:55:16;38.10;;;16.48;;
28437;SDS011;15667;52.376;9.708;2023-02-03T02:57:48;39.25;;;16.02;;
28437;SDS011;15667;52.376;9.708;2023-02-03T03:00:17;38.65;;;16.88;;
28437;SDS011;15667;52.376;9.708;2023-02-03T03:02:43;35.00;;;15.55;;
28437;SDS011;15667;52.376;9.708;2023-02-03T03:05:09;40.30;;;16.55;;
28437;SDS011;15667;52.376;9.708;2023-02-03T03:07:42;32.22;;;15.93;;
28437;SDS011;15667;52.376;9.708;2023-02-03T03:10:12;33.72;;;15.45;;
28437;SDS011;15667;52.376;9.708;2023-02-03T03:12:46;33.78;;;15.57;;
28437;SDS011;15667;52.376;9.708;2023-02-03T03:15:19;31.23;;;15.05;;
28437;SDS011;15667;52.376;9.708;2023-02-03T03:17:53;29.65;;;15.18;;
28437;SDS011;15667;52.376;9.708;2023-02-03T03:20:25;31.65;;;13.68;;
28437;SDS011;15667;52.376;9.708;2023-02-03T03:23:14;24.02;;;12.95;;
28437;SDS011;15667;52.376;9.708;2023-02-03T03:25:51;27.38;;;12.95;;
28437;SDS011;15667;52.376;9.708;2023-02-03T03:28:44;25.77;;;12.25;;
28437;SDS011;15667;52.376;9.708;2023-02-03T03:31:13;26.95;;;12.75;;
28437;SDS011;15667;52.376;9.708;2023-02-03T03:33:41;23.85;;;10.63;;
28437;SDS011;15667;52.376;9.708;2023-02-03T03:36:18;26.70;;;11.60;;
28437;SDS011;15667;52.376;9.708;2023-02-03T03:38:55;25.80;;;11.48;;
28437;SDS011;15667;52.376;9.708;2023-02-03T03:44:16;17.13;;;10.35;;
28437;SDS011;15667;52.376;9.708;2023-02-03T03:46:48;23.27;;;11.07;;
28437;SDS011;15667;52.376;9.708;2023-02-03T03:49:20;17.73;;;10.70;;
28437;SDS011;15667;52.376;9.708;2023-02-03T03:51:53;22.52;;;9.77;;
28437;SDS011;15667;52.376;9.708;2023-02-03T03:54:22;21.90;;;9.68;;
28437;SDS011;15667;52.376;9.708;2023-02-03T03:56:52;20.20;;;9.45;;
28437;SDS011;15667;52.376;9.708;2023-02-03T03:59:39;17.85;;;9.43;;
28437;SDS011;15667;52.376;9.708;2023-02-03T04:02:09;22.55;;;9.57;;
28437;SDS011;15667;52.376;9.708;2023-02-03T04:04:37;23.67;;;9.80;;
28437;SDS011;15667;52.376;9.708;2023-02-03T04:07:03;22.77;;;9.60;;
28437;SDS011;15667;52.376;9.708;2023-02-03T04:09:29;21.60;;;9.68;;
28437;SDS011;15667;52.376;9.708;2023-02-03T04:11:55;19.83;;;9.32;;
28437;SDS011;15667;52.376;9.708;2023-02-03T04:14:30;18.77;;;9.00;;
28437;SDS011;15667;52.376;9.708;2023-02-03T04:17:02;19.65;;;8.30;;
28437;SDS011;15667;52.376;9.708;2023-02-03T04:19:28;19.70;;;8.98;;
28437;SDS011;15667;52.376;9.708;2023-02-03T04:21:54;18.77;;;9.73;;
28437;SDS011;15667;52.376;9.708;2023-02-03T04:24:19;16.95;;;8.57;;
28437;SDS011;15667;52.376;9.708;2023-02-03T04:26:45;21.42;;;8.98;;
28437;SDS011;15667;52.376;9.708;2023-02-03T04:29:11;21.55;;;8.70;;
28437;SDS011;15667;52.376;9.708;2023-02-03T04:31:36;20.08;;;9.43;;
28437;SDS011;15667;52.376;9.708;2023-02-03T04:34:05;18.58;;;8.55;;
28437;SDS011;15667;52.376;9.708;2023-02-03T04:36:31;21.42;;;8.98;;
28437;SDS011;15667;52.376;9.708;2023-02-03T04:38:56;23.35;;;8.93;;
28437;SDS011;15667;52.376;9.708;2023-02-03T04:41:22;19.42;;;8.70;;
28437;SDS011;15667;52.376;9.708;2023-02-03T04:43:47;17.60;;;8.40;;
28437;SDS011;15667;52.376;9.708;2023-02-03T04:46:13;19.85;;;8.43;;
28437;SDS011;15667;52.376;9.708;2023-02-03T04:48:39;19.98;;;8.82;;
28437;SDS011;15667;52.376;9.708;2023-02-03T04:51:05;17.35;;;8.80;;
28437;SDS011;15667;52.376;9.708;2023-02-03T04:53:32;16.45;;;8.82;;
28437;SDS011;15667;52.376;9.708;2023-02-03T04:55:58;13.27;;;8.20;;
28437;SDS011;15667;52.376;9.708;2023-02-03T04:58:24;23.98;;;8.23;;
28437;SDS011;15667;52.376;9.708;2023-02-03T05:00:52;19.42;;;8.45;;
28437;SDS011;15667;52.376;9.708;2023-02-03T05:03:18;14.77;;;8.07;;
28437;SDS011;15667;52.376;9.708;2023-02-03T05:05:44;18.42;;;8.38;;
28437;SDS011;15667;52.376;9.708;2023-02-03T05:08:10;15.52;;;7.85;;
28437;SDS011;15667;52.376;9.708;2023-02-03T05:10:36;16.25;;;8.30;;
28437;SDS011;15667;52.376;9.708;2023-02-03T05:13:01;15.85;;;8.27;;
28437;SDS011;15667;52.376;9.708;2023-02-03T05:15:27;17.55;;;7.30;;
28437;SDS011;15667;52.376;9.708;2023-02-03T05:17:53;14.23;;;7.30;;
28437;SDS011;15667;52.376;9.708;2023-02-03T05:20:19;17.67;;;7.18;;
28437;SDS011;15667;52.376;9.708;2023-02-03T05:22:46;19.23;;;6.85;;
28437;SDS011;15667;52.376;9.708;2023-02-03T05:25:11;17.20;;;7.95;;
28437;SDS011;15667;52.376;9.708;2023-02-03T05:27:37;15.75;;;7.38;;
28437;SDS011;15667;52.376;9.708;2023-02-03T05:30:03;18.65;;;7.45;;
28437;SDS011;15667;52.376;9.708;2023-02-03T05:32:30;15.85;;;6.65;;
28437;SDS011;15667;52.376;9.708;2023-02-03T05:34:55;13.60;;;7.28;;
28437;SDS011;15667;52.376;9.708;2023-02-03T05:37:21;21.02;;;7.43;;
28437;SDS011;15667;52.376;9.708;2023-02-03T05:39:47;19.15;;;7.93;;
28437;SDS011;15667;52.376;9.708;2023-02-03T05:42:13;36.38;;;15.70;;
28437;SDS011;15667;52.376;9.708;2023-02-03T05:44:38;20.40;;;7.00;;
28437;SDS011;15667;52.376;9.708;2023-02-03T05:47:04;18.30;;;7.60;;
28437;SDS011;15667;52.376;9.708;2023-02-03T05:49:30;21.75;;;8.05;;
28437;SDS011;15667;52.376;9.708;2023-02-03T05:51:55;18.45;;;6.80;;
28437;SDS011;15667;52.376;9.708;2023-02-03T05:54:21;16.63;;;6.97;;
28437;SDS011;15667;52.376;9.708;2023-02-03T05:56:47;15.00;;;6.97;;
28437;SDS011;15667;52.376;9.708;2023-02-03T05:59:13;16.05;;;7.93;;
28437;SDS011;15667;52.376;9.708;2023-02-03T06:01:39;20.00;;;7.63;;
28437;SDS011;15667;52.376;9.708;2023-02-03T06:04:04;14.75;;;7.50;;
28437;SDS011;15667;52.376;9.708;2023-02-03T06:06:30;20.42;;;8.13;;
28437;SDS011;15667;52.376;9.708;2023-02-03T06:09:03;18.00;;;8.07;;
28437;SDS011;15667;52.376;9.708;2023-02-03T06:11:30;18.90;;;8.00;;
28437;SDS011;15667;52.376;9.708;2023-02-03T06:13:56;15.32;;;7.18;;
28437;SDS011;15667;52.376;9.708;2023-02-03T06:16:23;15.65;;;6.93;;
28437;SDS011;15667;52.376;9.708;2023-02-03T06:18:50;16.35;;;6.90;;
28437;SDS011;15667;52.376;9.708;2023-02-03T06:21:16;18.17;;;7.05;;
28437;SDS011;15667;52.376;9.708;2023-02-03T06:23:42;14.43;;;6.57;;
28437;SDS011;15667;52.376;9.708;2023-02-03T06:26:08;21.90;;;8.70;;
28437;SDS011;15667;52.376;9.708;2023-02-03T06:28:33;15.65;;;6.82;;
28437;SDS011;15667;52.376;9.708;2023-02-03T06:30:59;18.80;;;7.55;;
28437;SDS011;15667;52.376;9.708;2023-02-03T06:33:25;24.52;;;9.13;;
28437;SDS011;15667;52.376;9.708;2023-02-03T06:35:52;26.30;;;8.43;;
28437;SDS011;15667;52.376;9.708;2023-02-03T06:38:18;21.00;;;9.07;;
28437;SDS011;15667;52.376;9.708;2023-02-03T06:40:47;19.38;;;8.80;;
28437;SDS011;15667;52.376;9.708;2023-02-03T06:43:12;23.65;;;9.07;;
28437;SDS011;15667;52.376;9.708;2023-02-03T06:45:38;21.95;;;7.88;;
28437;SDS011;15667;52.376;9.708;2023-02-03T06:48:04;13.20;;;7.32;;
28437;SDS011;15667;52.376;9.708;2023-02-03T06:50:30;24.42;;;9.23;;
28437;SDS011;15667;52.376;9.708;2023-02-03T06:52:55;18.23;;;7.57;;
28437;SDS011;15667;52.376;9.708;2023-02-03T06:55:21;20.05;;;8.23;;
28437;SDS011;15667;52.376;9.708;2023-02-03T06:57:47;24.05;;;9.40;;
28437;SDS011;15667;52.376;9.708;2023-02-03T07:00:13;21.17;;;8.50;;
28437;SDS011;15667;52.376;9.708;2023-02-03T07:02:40;23.77;;;9.18;;
28437;SDS011;15667;52.376;9.708;2023-02-03T07:05:06;23.23;;;9.63;;
28437;SDS011;15667;52.376;9.708;2023-02-03T07:07:32;19.98;;;9.13;;
28437;SDS011;15667;52.376;9.708;2023-02-03T07:09:58;18.65;;;9.50;;
28437;SDS011;15667;52.376;9.708;2023-02-03T07:12:25;20.95;;;9.23;;
28437;SDS011;15667;52.376;9.708;2023-02-03T07:14:51;20.75;;;9.13;;
28437;SDS011;15667;52.376;9.708;2023-02-03T07:17:17;21.20;;;9.43;;
28437;SDS011;15667;52.376;9.708;2023-02-03T07:19:43;28.42;;;9.55;;
28437;SDS011;15667;52.376;9.708;2023-02-03T07:22:11;26.08;;;10.13;;
28437;SDS011;15667;52.376;9.708;2023-02-03T07:24:37;19.45;;;9.80;;
28437;SDS011;15667;52.376;9.708;2023-02-03T07:27:03;19.83;;;9.02;;
28437;SDS011;15667;52.376;9.708;2023-02-03T07:29:28;20.30;;;9.68;;
28437;SDS011;15667;52.376;9.708;2023-02-03T07:31:54;20.98;;;10.00;;
28437;SDS011;15667;52.376;9.708;2023-02-03T07:34:20;24.52;;;9.55;;
28437;SDS011;15667;52.376;9.708;2023-02-03T07:36:45;17.52;;;8.77;;
28437;SDS011;15667;52.376;9.708;2023-02-03T07:39:11;18.92;;;9.07;;
28437;SDS011;15667;52.376;9.708;2023-02-03T07:41:37;26.25;;;10.00;;
28437;SDS011;15667;52.376;9.708;2023-02-03T07:44:03;23.65;;;9.40;;
28437;SDS011;15667;52.376;9.708;2023-02-03T07:46:29;22.88;;;8.40;;
28437;SDS011;15667;52.376;9.708;2023-02-03T07:48:55;25.23;;;8.70;;
28437;SDS011;15667;52.376;9.708;2023-02-03T07:51:20;17.60;;;9.52;;
28437;SDS011;15667;52.376;9.708;2023-02-03T07:53:46;24.13;;;10.63;;
28437;SDS011;15667;52.376;9.708;2023-02-03T07:56:11;17.08;;;8.68;;
28437;SDS011;15667;52.376;9.708;2023-02-03T07:58:37;23.58;;;10.48;;
28437;SDS011;15667;52.376;9.708;2023-02-03T08:01:08;19.75;;;10.45;;
28437;SDS011;15667;52.376;9.708;2023-02-03T08:03:39;20.63;;;9.93;;
28437;SDS011;15667;52.376;9.708;2023-02-03T08:06:05;18.08;;;9.45;;
28437;SDS011;15667;52.376;9.708;2023-02-03T08:08:31;20.58;;;10.27;;
28437;SDS011;15667;52.376;9.708;2023-02-03T08:10:57;23.35;;;11.20;;
28437;SDS011;15667;52.376;9.708;2023-02-03T08:13:22;19.48;;;9.77;;
28437;SDS011;15667;52.376;9.708;2023-02-03T08:15:48;20.08;;;10.18;;
28437;SDS011;15667;52.376;9.708;2023-02-03T08:18:14;21.88;;;10.98;;
28437;SDS011;15667;52.376;9.708;2023-02-03T08:20:39;20.88;;;11.10;;
28437;SDS011;15667;52.376;9.708;2023-02-03T08:23:05;26.40;;;11.20;;
28437;SDS011;15667;52.376;9.708;2023-02-03T08:25:31;22.95;;;10.88;;
28437;SDS011;15667;52.376;9.708;2023-02-03T08:27:57;24.80;;;11.75;;
28437;SDS011;15667;52.376;9.708;2023-02-03T08:30:23;27.63;;;10.80;;
28437;SDS011;15667;52.376;9.708;2023-02-03T08:32:48;22.42;;;10.50;;
28437;SDS011;15667;52.376;9.708;2023-02-03T08:35:14;23.73;;;9.35;;
28437;SDS011;15667;52.376;9.708;2023-02-03T08:37:40;28.25;;;11.77;;
28437;SDS011;15667;52.376;9.708;2023-02-03T08:40:06;20.02;;;10.55;;
28437;SDS011;15667;52.376;9.708;2023-02-03T08:42:32;22.70;;;10.68;;
28437;SDS011;15667;52.376;9.708;2023-02-03T08:44:58;23.52;;;11.07;;
28437;SDS011;15667;52.376;9.708;2023-02-03T08:47:24;20.17;;;8.10;;
28437;SDS011;15667;52.376;9.708;2023-02-03T08:49:50;20.15;;;8.55;;
28437;SDS011;15667;52.376;9.708;2023-02-03T08:52:15;19.85;;;8.45;;
28437;SDS011;15667;52.376;9.708;2023-02-03T08:54:41;21.40;;;8.60;;
28437;SDS011;15667;52.376;9.708;2023-02-03T08:57:07;19.83;;;8.13;;
28437;SDS011;15667;52.376;9.708;2023-02-03T08:59:39;20.83;;;8.68;;
28437;SDS011;15667;52.376;9.708;2023-02-03T09:02:07;16.83;;;7.32;;
28437;SDS011;15667;52.376;9.708;2023-02-03T09:04:36;17.05;;;8.25;;
28437;SDS011;15667;52.376;9.708;2023-02-03T09:07:02;19.25;;;7.97;;
28437;SDS011;15667;52.376;9.708;2023-02-03T09:09:28;14.00;;;6.55;;
28437;SDS011;15667;52.376;9.708;2023-02-03T09:11:54;18.98;;;7.25;;
28437;SDS011;15667;52.376;9.708;2023-02-03T09:14:26;23.02;;;7.53;;
28437;SDS011;15667;52.376;9.708;2023-02-03T09:16:55;21.25;;;7.07;;
28437;SDS011;15667;52.376;9.708;2023-02-03T09:19:21;15.90;;;6.55;;
28437;SDS011;15667;52.376;9.708;2023-02-03T09:21:47;14.95;;;6.82;;
28437;SDS011;15667;52.376;9.708;2023-02-03T09:24:13;16.17;;;5.95;;
28437;SDS011;15667;52.376;9.708;2023-02-03T09:26:39;15.20;;;6.60;;
28437;SDS011;15667;52.376;9.708;2023-02-03T09:29:21;14.60;;;6.30;;
28437;SDS011;15667;52.376;9.708;2023-02-03T09:31:48;15.88;;;5.97;;
28437;SDS011;15667;52.376;9.708;2023-02-03T09:34:16;15.98;;;6.00;;
28437;SDS011;15667;52.376;9.708;2023-02-03T09:36:43;20.73;;;5.43;;
28437;SDS011;15667;52.376;9.708;2023-02-03T09:39:09;16.83;;;5.68;;
28437;SDS011;15667;52.376;9.708;2023-02-03T09:47:02;16.05;;;5.90;;
28437;SDS011;15667;52.376;9.708;2023-02-03T09:49:38;11.13;;;4.03;;
28437;SDS011;15667;52.376;9.708;2023-02-03T09:52:19;17.42;;;5.15;;
28437;SDS011;15667;52.376;9.708;2023-02-03T09:57:23;21.13;;;4.80;;
28437;SDS011;15667;52.376;9.708;2023-02-03T09:59:50;15.05;;;4.97;;
28437;SDS011;15667;52.376;9.708;2023-02-03T10:10:55;20.52;;;5.10;;
28437;SDS011;15667;52.376;9.708;2023-02-03T10:19:02;16.48;;;4.30;;
28437;SDS011;15667;52.376;9.708;2023-02-03T10:21:44;16.48;;;4.32;;
28437;SDS011;15667;52.376;9.708;2023-02-03T10:24:21;15.80;;;4.20;;
28437;SDS011;15667;52.376;9.708;2023-02-03T10:26:51;10.23;;;3.85;;
28437;SDS011;15667;52.376;9.708;2023-02-03T10:32:10;16.90;;;3.97;;
28437;SDS011;15667;52.376;9.708;2023-02-03T10:34:37;19.98;;;3.33;;
28437;SDS011;15667;52.376;9.708;2023-02-03T10:39:57;18.67;;;4.22;;
28437;SDS011;15667;52.376;9.708;2023-02-03T10:42:24;16.42;;;3.47;;
28437;SDS011;15667;52.376;9.708;2023-02-03T10:45:11;16.70;;;3.85;;
28437;SDS011;15667;52.376;9.708;2023-02-03T10:47:38;18.20;;;3.88;;
28437;SDS011;15667;52.376;9.708;2023-02-03T10:50:20;16.48;;;3.22;;
28437;SDS011;15667;52.376;9.708;2023-02-03T10:52:47;19.38;;;3.45;;
28437;SDS011;15667;52.376;9.708;2023-02-03T10:57:45;21.58;;;3.42;;
28437;SDS011;15667;52.376;9.708;2023-02-03T11:00:33;16.17;;;3.47;;
28437;SDS011;15667;52.376;9.708;2023-02-03T11:03:04;19.42;;;3.47;;
28437;SDS011;15667;52.376;9.708;2023-02-03T11:05:32;13.85;;;3.90;;
28437;SDS011;15667;52.376;9.708;2023-02-03T11:07:58;18.02;;;3.70;;
28437;SDS011;15667;52.376;9.708;2023-02-03T11:10:28;22.55;;;3.40;;
28437;SDS011;15667;52.376;9.708;2023-02-03T11:15:52;22.02;;;4.25;;
28437;SDS011;15667;52.376;9.708;2023-02-03T11:20:56;19.33;;;4.43;;
28437;SDS011;15667;52.376;9.708;2023-02-03T11:23:22;21.67;;;3.97;;
28437;SDS011;15667;52.376;9.708;2023-02-03T11:25:48;22.48;;;3.80;;
28437;SDS011;15667;52.376;9.708;2023-02-03T11:28:13;19.02;;;3.90;;
28437;SDS011;15667;52.376;9.708;2023-02-03T11:30:40;24.13;;;4.35;;
28437;SDS011;15667;52.376;9.708;2023-02-03T11:33:17;18.92;;;4.35;;
28437;SDS011;15667;52.376;9.708;2023-02-03T11:35:54;28.13;;;5.25;;
28437;SDS011;15667;52.376;9.708;2023-02-03T11:38:30;28.67;;;4.50;;
28437;SDS011;15667;52.376;9.708;2023-02-03T11:41:00;21.38;;;3.50;;
28437;SDS011;15667;52.376;9.708;2023-02-03T11:43:27;22.50;;;4.53;;
28437;SDS011;15667;52.376;9.708;2023-02-03T11:45:53;26.55;;;3.88;;
28437;SDS011;15667;52.376;9.708;2023-02-03T12:02:28;23.77;;;3.72;;
28437;SDS011;15667;52.376;9.708;2023-02-03T12:10:53;24.55;;;3.63;;
28437;SDS011;15667;52.376;9.708;2023-02-03T12:13:36;23.60;;;3.92;;
28437;SDS011;15667;52.376;9.708;2023-02-03T12:21:55;25.63;;;4.18;;
28437;SDS011;15667;52.376;9.708;2023-02-03T12:27:15;30.55;;;3.60;;
28437;SDS011;15667;52.376;9.708;2023-02-03T12:32:50;19.27;;;4.22;;
28437;SDS011;15667;52.376;9.708;2023-02-03T12:35:35;18.90;;;3.90;;
28437;SDS011;15667;52.376;9.708;2023-02-03T12:38:11;19.95;;;3.00;;
28437;SDS011;15667;52.376;9.708;2023-02-03T12:40:58;18.25;;;2.83;;
28437;SDS011;15667;52.376;9.708;2023-02-03T12:43:38;24.73;;;3.42;;
28437;SDS011;15667;52.376;9.708;2023-02-03T12:52:09;21.70;;;2.85;;
28437;SDS011;15667;52.376;9.708;2023-02-03T13:02:34;21.65;;;2.38;;
28437;SDS011;15667;52.376;9.708;2023-02-03T13:05:14;18.83;;;2.85;;
28437;SDS011;15667;52.376;9.708;2023-02-03T13:07:48;19.42;;;2.70;;
28437;SDS011;15667;52.376;9.708;2023-02-03T13:10:35;20.63;;;2.60;;
28437;SDS011;15667;52.376;9.708;2023-02-03T13:13:07;20.90;;;2.45;;
28437;SDS011;15667;52.376;9.708;2023-02-03T13:15:44;21.88;;;2.45;;
28437;SDS011;15667;52.376;9.708;2023-02-03T13:20:41;18.98;;;2.65;;
28437;SDS011;15667;52.376;9.708;2023-02-03T13:23:09;19.63;;;3.10;;
28437;SDS011;15667;52.376;9.708;2023-02-03T13:25:53;22.33;;;2.97;;
28437;SDS011;15667;52.376;9.708;2023-02-03T13:31:37;22.90;;;3.03;;
28437;SDS011;15667;52.376;9.708;2023-02-03T13:34:09;19.15;;;2.65;;
28437;SDS011;15667;52.376;9.708;2023-02-03T13:39:39;21.52;;;2.72;;
28437;SDS011;15667;52.376;9.708;2023-02-03T13:42:26;19.40;;;2.50;;
28437;SDS011;15667;52.376;9.708;2023-02-03T13:44:56;11.60;;;2.50;;
28437;SDS011;15667;52.376;9.708;2023-02-03T13:47:32;29.00;;;4.00;;
28437;SDS011;15667;52.376;9.708;2023-02-03T13:50:03;17.48;;;2.58;;
28437;SDS011;15667;52.376;9.708;2023-02-03T13:52:52;17.37;;;3.27;;
28437;SDS011;15667;52.376;9.708;2023-02-03T13:55:29;25.48;;;2.95;;
28437;SDS011;15667;52.376;9.708;2023-02-03T13:58:00;21.92;;;2.60;;
28437;SDS011;15667;52.376;9.708;2023-02-03T14:03:14;20.25;;;3.22;;
28437;SDS011;15667;52.376;9.708;2023-02-03T14:05:43;16.17;;;2.78;;
28437;SDS011;15667;52.376;9.708;2023-02-03T14:14:41;22.88;;;2.65;;
28437;SDS011;15667;52.376;9.708;2023-02-03T14:16:50;21.40;;;3.00;;
28437;SDS011;15667;52.376;9.708;2023-02-03T14:21:53;21.30;;;2.63;;
28437;SDS011;15667;52.376;9.708;2023-02-03T14:24:40;14.43;;;2.13;;
28437;SDS011;15667;52.376;9.708;2023-02-03T14:27:17;24.33;;;3.40;;
28437;SDS011;15667;52.376;9.708;2023-02-03T14:30:02;17.80;;;2.35;;
28437;SDS011;15667;52.376;9.708;2023-02-03T14:32:50;19.33;;;2.78;;
28437;SDS011;15667;52.376;9.708;2023-02-03T14:35:23;14.25;;;2.70;;
28437;SDS011;15667;52.376;9.708;2023-02-03T14:38:04;19.45;;;2.95;;
28437;SDS011;15667;52.376;9.708;2023-02-03T14:44:10;21.58;;;3.53;;
28437;SDS011;15667;52.376;9.708;2023-02-03T14:53:11;21.45;;;2.97;;
28437;SDS011;15667;52.376;9.708;2023-02-03T14:55:20;17.75;;;2.45;;
28437;SDS011;15667;52.376;9.708;2023-02-03T14:58:00;19.30;;;3.08;;
28437;SDS011;15667;52.376;9.708;2023-02-03T15:00:30;18.40;;;3.17;;
28437;SDS011;15667;52.376;9.708;2023-02-03T15:05:35;14.27;;;2.72;;
28437;SDS011;15667;52.376;9.708;2023-02-03T15:11:26;26.35;;;3.28;;
28437;SDS011;15667;52.376;9.708;2023-02-03T15:13:54;18.45;;;2.97;;
28437;SDS011;15667;52.376;9.708;2023-02-03T15:16:39;22.08;;;2.95;;
28437;SDS011;15667;52.376;9.708;2023-02-03T15:19:18;23.10;;;3.17;;
28437;SDS011;15667;52.376;9.708;2023-02-03T15:21:46;16.92;;;3.17;;
28437;SDS011;15667;52.376;9.708;2023-02-03T15:24:14;24.90;;;3.42;;
28437;SDS011;15667;52.376;9.708;2023-02-03T15:26:44;23.80;;;3.17;;
28437;SDS011;15667;52.376;9.708;2023-02-03T15:29:18;26.10;;;3.05;;
28437;SDS011;15667;52.376;9.708;2023-02-03T15:31:47;25.45;;;3.22;;
28437;SDS011;15667;52.376;9.708;2023-02-03T15:34:21;28.42;;;3.10;;
28437;SDS011;15667;52.376;9.708;2023-02-03T15:36:56;15.45;;;2.67;;
28437;SDS011;15667;52.376;9.708;2023-02-03T15:39:39;26.20;;;4.00;;
28437;SDS011;15667;52.376;9.708;2023-02-03T15:42:07;23.30;;;3.38;;
28437;SDS011;15667;52.376;9.708;2023-02-03T15:45:07;24.13;;;2.58;;
28437;SDS011;15667;52.376;9.708;2023-02-03T15:47:35;24.48;;;2.90;;
28437;SDS011;15667;52.376;9.708;2023-02-03T15:50:20;21.85;;;3.20;;
28437;SDS011;15667;52.376;9.708;2023-02-03T15:52:57;22.08;;;3.25;;
28437;SDS011;15667;52.376;9.708;2023-02-03T15:55:33;20.05;;;2.70;;
28437;SDS011;15667;52.376;9.708;2023-02-03T15:58:05;21.05;;;3.10;;
28437;SDS011;15667;52.376;9.708;2023-02-03T16:00:45;17.92;;;2.72;;
28437;SDS011;15667;52.376;9.708;2023-02-03T16:03:18;28.13;;;4.07;;
28437;SDS011;15667;52.376;9.708;2023-02-03T16:05:46;31.70;;;4.53;;
28437;SDS011;15667;52.376;9.708;2023-02-03T16:10:58;20.45;;;3.45;;
28437;SDS011;15667;52.376;9.708;2023-02-03T16:13:25;20.75;;;3.58;;
28437;SDS011;15667;52.376;9.708;2023-02-03T16:16:03;23.00;;;4.00;;
28437;SDS011;15667;52.376;9.708;2023-02-03T16:18:52;25.67;;;3.03;;
28437;SDS011;15667;52.376;9.708;2023-02-03T16:21:32;18.30;;;3.13;;
28437;SDS011;15667;52.376;9.708;2023-02-03T16:24:00;34.55;;;4.57;;
28437;SDS011;15667;52.376;9.708;2023-02-03T16:26:31;27.70;;;3.70;;
28437;SDS011;15667;52.376;9.708;2023-02-03T16:31:53;27.48;;;4.18;;
28437;SDS011;15667;52.376;9.708;2023-02-03T16:34:38;32.95;;;3.45;;
28437;SDS011;15667;52.376;9.708;2023-02-03T16:37:23;28.10;;;3.63;;
28437;SDS011;15667;52.376;9.708;2023-02-03T16:40:10;29.00;;;3.67;;
28437;SDS011;15667;52.376;9.708;2023-02-03T16:42:57;25.98;;;3.40;;
28437;SDS011;15667;52.376;9.708;2023-02-03T16:45:41;22.35;;;3.33;;
28437;SDS011;15667;52.376;9.708;2023-02-03T16:48:26;27.45;;;3.60;;
28437;SDS011;15667;52.376;9.708;2023-02-03T16:51:14;23.33;;;3.85;;
28437;SDS011;15667;52.376;9.708;2023-02-03T16:53:41;31.25;;;3.88;;
28437;SDS011;15667;52.376;9.708;2023-02-03T16:56:09;23.17;;;3.60;;
28437;SDS011;15667;52.376;9.708;2023-02-03T16:58:37;31.67;;;3.75;;
28437;SDS011;15667;52.376;9.708;2023-02-03T17:01:03;27.88;;;4.13;;
28437;SDS011;15667;52.376;9.708;2023-02-03T17:03:30;34.53;;;4.32;;
28437;SDS011;15667;52.376;9.708;2023-02-03T17:06:08;30.33;;;3.90;;